Time;durP1;ratioP1;P1;durP2;ratioP2;P2;SDS_P1;SDS_P2;PMS_P1;PMS_P2;Temp;Humidity;BMP_temperature;BMP_pressure;BME280_temperature;BME280_humidity;BME280_pressure;Samples;Min_cycle;Max_cycle;Signal;HPM_P1;HPM_P2
2022/08/23 00:02:05;;;;;;;;;;;18.70;1.00;;;;;;5093361;28;19920;-89
2022/08/23 00:04:35;;;;;;;;;;;18.70;1.00;;;;;;5093146;28;19926;-90
2022/08/23 00:07:03;;;;;;;;;;;18.70;92.40;;;;;;5092962;28;19927;-89
2022/08/23 00:09:30;;;;;;;;;;;18.60;99.90;;;;;;5093168;28;19920;-90
2022/08/23 00:12:03;;;;;;;;;;;18.70;1.00;;;;;;5073533;28;20344;-88
2022/08/23 00:14:32;;;;;;;;;;;18.70;1.00;;;;;;5072786;28;19924;-88
2022/08/23 00:16:59;;;;;;;;;;;18.60;99.90;;;;;;5073107;28;19920;-90
2022/08/23 00:19:27;;;;;;;;;;;18.60;99.90;;;;;;5072494;28;19939;-88
2022/08/23 00:21:55;;;;;;;;;;;18.60;1.00;;;;;;5084049;28;19920;-88
2022/08/23 00:24:23;;;;;;;;;;;18.60;99.90;;;;;;5089554;28;19982;-87
2022/08/23 00:26:51;;;;;;;;;;;18.60;1.00;;;;;;5082243;28;19921;-88
2022/08/23 00:29:19;;;;;;;;;;;18.60;20.40;;;;;;5091154;28;20278;-87
2022/08/23 00:31:46;;;;;;;;;;;18.60;1.00;;;;;;5091267;28;20255;-86
2022/08/23 00:34:12;;;;;;;;;;;18.60;99.90;;;;;;5092681;28;20328;-88
2022/08/23 00:36:39;;;;;;;;;;;18.50;62.00;;;;;;5078604;28;19920;-87
2022/08/23 00:39:08;;;;;;;;;;;18.50;59.80;;;;;;5084085;28;19925;-89
2022/08/23 00:41:35;;;;;;;;;;;18.50;99.90;;;;;;5087887;28;19920;-87
2022/08/23 00:49:46;;;;;;;;;;;18.50;1.00;;;;;;5091721;28;19966;-88
2022/08/23 00:52:17;;;;;;;;;;;18.50;1.00;;;;;;5088203;28;19924;-87
2022/08/23 00:54:46;;;;;;;;;;;18.50;1.00;;;;;;5072596;28;19920;-87
2022/08/23 00:57:14;;;;;;;;;;;18.50;99.90;;;;;;5090222;28;19920;-87
2022/08/23 00:59:41;;;;;;;;;;;18.50;99.90;;;;;;5092798;28;19932;-87
2022/08/23 01:02:08;;;;;;;;;;;18.50;99.90;;;;;;5089902;28;19990;-88
2022/08/23 01:04:38;;;;;;;;;;;18.50;1.00;;;;;;5081019;28;19920;-88
2022/08/23 01:07:09;;;;;;;;;;;18.50;1.00;;;;;;5092444;28;19920;-87
2022/08/23 01:09:37;;;;;;;;;;;18.50;1.00;;;;;;5088442;28;19920;-88
2022/08/23 01:12:07;;;;;;;;;;;18.50;55.40;;;;;;5075930;28;20362;-87
2022/08/23 01:14:38;;;;;;;;;;;18.40;99.90;;;;;;5091475;28;19924;-87
2022/08/23 01:17:08;;;;;;;;;;;18.50;99.90;;;;;;5096337;28;19927;-88
2022/08/23 01:19:37;;;;;;;;;;;18.40;99.90;;;;;;5081984;28;20017;-88
2022/08/23 01:22:08;;;;;;;;;;;18.50;32.30;;;;;;5085790;28;20289;-86
2022/08/23 01:24:37;;;;;;;;;;;18.40;1.00;;;;;;5090581;28;19986;-88
2022/08/23 01:27:04;;;;;;;;;;;18.40;1.00;;;;;;5085437;28;19927;-86
2022/08/23 01:29:31;;;;;;;;;;;18.40;64.00;;;;;;5080594;28;19994;-87
2022/08/23 01:31:59;;;;;;;;;;;18.40;1.00;;;;;;5075670;28;19920;-89
2022/08/23 01:34:27;;;;;;;;;;;18.40;1.00;;;;;;5076174;28;19920;-88
2022/08/23 01:36:55;;;;;;;;;;;18.40;99.90;;;;;;5076020;28;20017;-88
2022/08/23 01:39:22;;;;;;;;;;;18.40;99.90;;;;;;5076102;28;19932;-89
2022/08/23 01:41:50;;;;;;;;;;;18.40;1.00;;;;;;5075485;28;19921;-89
2022/08/23 01:44:17;;;;;;;;;;;18.40;99.90;;;;;;5086577;28;19997;-88
2022/08/23 01:46:44;;;;;;;;;;;18.40;99.90;;;;;;5093612;28;19920;-87
2022/08/23 01:49:11;;;;;;;;;;;18.30;99.90;;;;;;5084517;28;19973;-88
2022/08/23 01:51:38;;;;;;;;;;;18.30;1.00;;;;;;5083032;28;19920;-88
2022/08/23 01:54:05;;;;;;;;;;;18.30;99.90;;;;;;5084784;28;19928;-88
2022/08/23 01:56:33;;;;;;;;;;;18.30;99.90;;;;;;5095681;28;19955;-88
2022/08/23 01:59:02;;;;;;;;;;;18.30;99.90;;;;;;5081863;28;19945;-88
2022/08/23 02:01:28;;;;;;;;;;;18.30;99.90;;;;;;5089652;28;19920;-87
2022/08/23 02:03:55;;;;;;;;;;;18.30;1.00;;;;;;5087291;28;20279;-88
2022/08/23 02:06:22;;;;;;;;;;;18.30;99.90;;;;;;5081260;28;19927;-87
2022/08/23 02:09:01;;;;;;;;;;;18.30;99.90;;;;;;5085346;28;20274;-87
2022/08/23 02:11:28;;;;;;;;;;;18.20;1.00;;;;;;5077021;28;20320;-87
2022/08/23 02:13:56;;;;;;;;;;;18.20;1.00;;;;;;5086059;28;19920;-88
2022/08/23 02:16:26;;;;;;;;;;;18.20;1.00;;;;;;5080994;28;19927;-88
2022/08/23 02:18:53;;;;;;;;;;;18.20;1.00;;;;;;5083201;28;19920;-87
2022/08/23 02:21:20;;;;;;;;;;;18.20;1.00;;;;;;5074870;28;20379;-88
2022/08/23 02:23:47;;;;;;;;;;;18.20;1.00;;;;;;5087830;28;19920;-88
2022/08/23 02:26:14;;;;;;;;;;;18.20;72.40;;;;;;5081297;28;19920;-89
2022/08/23 02:28:41;;;;;;;;;;;18.20;85.60;;;;;;5087201;28;19924;-88
2022/08/23 02:31:08;;;;;;;;;;;18.20;1.00;;;;;;5077898;28;19927;-87
2022/08/23 02:33:36;;;;;;;;;;;18.20;1.00;;;;;;5094852;28;20270;-89
2022/08/23 02:36:03;;;;;;;;;;;18.20;1.00;;;;;;5079383;28;19921;-89
2022/08/23 02:38:30;;;;;;;;;;;18.20;1.00;;;;;;5075183;28;19928;-87
2022/08/23 02:40:57;;;;;;;;;;;18.10;99.90;;;;;;5075084;28;19932;-88
2022/08/23 02:43:24;;;;;;;;;;;18.10;1.00;;;;;;5074565;28;19924;-87
2022/08/23 02:45:51;;;;;;;;;;;18.10;99.90;;;;;;5074830;28;20287;-89
2022/08/23 02:48:18;;;;;;;;;;;18.10;71.70;;;;;;5093529;28;19959;-87
2022/08/23 02:50:46;;;;;;;;;;;18.00;99.90;;;;;;5094826;28;19953;-86
2022/08/23 02:53:13;;;;;;;;;;;18.00;99.90;;;;;;5080331;28;19927;-87
2022/08/23 02:55:40;;;;;;;;;;;18.00;99.90;;;;;;5085207;28;20263;-87
2022/08/23 02:58:07;;;;;;;;;;;18.00;99.90;;;;;;5074377;28;19924;-87
2022/08/23 03:00:33;;;;;;;;;;;18.00;99.90;;;;;;5082084;28;19920;-88
2022/08/23 03:03:00;;;;;;;;;;;18.00;99.90;;;;;;5094293;28;20304;-88
2022/08/23 03:05:28;;;;;;;;;;;17.90;99.90;;;;;;5090267;28;19935;-89
2022/08/23 03:07:56;;;;;;;;;;;18.00;99.90;;;;;;5084925;28;19920;-87
2022/08/23 03:10:23;;;;;;;;;;;17.90;97.20;;;;;;5087362;28;19921;-88
2022/08/23 03:12:51;;;;;;;;;;;17.90;99.90;;;;;;5082042;28;19920;-88
2022/08/23 03:15:18;;;;;;;;;;;17.90;99.90;;;;;;5091609;28;19963;-87
2022/08/23 03:17:45;;;;;;;;;;;17.90;99.90;;;;;;5084385;28;19921;-88
2022/08/23 03:20:11;;;;;;;;;;;17.90;99.90;;;;;;5086037;28;20007;-86
2022/08/23 03:22:39;;;;;;;;;;;18.00;1.00;;;;;;5087911;28;19920;-87
2022/08/23 03:25:08;;;;;;;;;;;17.90;99.90;;;;;;5094056;28;20524;-87
2022/08/23 03:27:35;;;;;;;;;;;18.00;99.90;;;;;;5077852;28;19966;-87
2022/08/23 03:30:02;;;;;;;;;;;18.00;1.00;;;;;;5081132;28;20033;-87
2022/08/23 03:32:28;;;;;;;;;;;18.00;1.00;;;;;;5074295;28;19974;-87
2022/08/23 03:34:55;;;;;;;;;;;18.00;1.00;;;;;;5093183;28;20396;-87
2022/08/23 03:37:23;;;;;;;;;;;18.00;1.00;;;;;;5094138;28;19927;-89
2022/08/23 03:39:51;;;;;;;;;;;18.00;1.00;;;;;;5093428;28;19928;-87
2022/08/23 03:42:19;;;;;;;;;;;18.00;1.00;;;;;;5083006;28;19966;-88
2022/08/23 03:44:46;;;;;;;;;;;18.00;1.00;;;;;;5091995;28;19920;-86
2022/08/23 03:47:12;;;;;;;;;;;18.00;1.00;;;;;;5093935;28;19928;-88
2022/08/23 03:49:40;;;;;;;;;;;18.00;1.00;;;;;;5093518;28;19924;-87
2022/08/23 03:52:07;;;;;;;;;;;18.00;53.70;;;;;;5093850;28;20431;-88
2022/08/23 03:54:35;;;;;;;;;;;18.10;9.40;;;;;;5093314;28;19927;-89
2022/08/23 03:57:03;;;;;;;;;;;18.10;41.00;;;;;;5094319;28;19973;-91
2022/08/23 03:59:32;;;;;;;;;;;18.10;99.90;;;;;;5081056;28;19990;-89
2022/08/23 04:01:59;;;;;;;;;;;18.00;99.20;;;;;;5074007;28;19931;-88
2022/08/23 04:04:26;;;;;;;;;;;18.00;99.90;;;;;;5073797;28;19927;-88
2022/08/23 04:06:53;;;;;;;;;;;18.00;99.90;;;;;;5087549;28;19925;-87
2022/08/23 04:09:20;;;;;;;;;;;18.00;99.90;;;;;;5083563;28;19927;-89
2022/08/23 04:11:47;;;;;;;;;;;18.00;99.90;;;;;;5091057;28;20277;-87
2022/08/23 04:14:15;;;;;;;;;;;18.00;99.90;;;;;;5095028;28;19924;-89
2022/08/23 04:16:43;;;;;;;;;;;18.00;99.90;;;;;;5107258;28;19927;-89
2022/08/23 04:22:26;;;;;;;;;;;18.00;99.90;;;;;;5106915;28;19951;-93
2022/08/23 04:25:04;;;;;;;;;;;18.00;99.90;;;;;;5113268;28;19916;-92
2022/08/23 04:30:18;;;;;;;;;;;18.00;99.90;;;;;;5388684;23;19944;-91
2022/08/23 04:50:20;;;;;;;19.13;14.97;;;18.40;1.00;;;;;;5561925;23;20296;-93
2022/08/23 04:52:50;;;;;;;21.37;15.37;;;18.50;1.00;;;;;;4977245;29;20223;-92
2022/08/23 04:56:10;;;;;;;;;;;;;;;;;;;;;
2022/08/23 04:58:43;;;;;;;20.60;14.80;;;18.60;99.90;;;;;;4976152;28;20200;-88
2022/08/23 05:01:14;;;;;;;19.40;15.00;;;18.60;99.90;;;;;;4966877;28;20213;-87
2022/08/23 05:03:42;;;;;;;18.70;14.15;;;18.60;99.90;;;;;;4972874;28;20191;-88
2022/08/23 05:06:11;;;;;;;19.13;14.43;;;18.60;99.90;;;;;;4972351;28;20511;-88
2022/08/23 05:08:38;;;;;;;28.60;16.80;;;18.70;99.90;;;;;;4973139;28;20207;-89
2022/08/23 05:11:07;;;;;;;21.73;16.60;;;18.70;99.90;;;;;;4972747;28;20115;-89
2022/08/23 05:13:34;;;;;;;;;;;18.70;99.90;;;;;;4974270;28;19981;-89
2022/08/23 05:16:03;;;;;;;22.50;15.60;;;18.70;99.90;;;;;;4966614;28;20059;-87
2022/08/23 05:18:30;;;;;;;19.47;15.80;;;18.80;99.90;;;;;;4977673;28;20231;-90
2022/08/23 05:20:58;;;;;;;19.40;14.77;;;18.80;99.90;;;;;;4967366;28;20192;-89
2022/08/23 05:23:27;;;;;;;19.17;14.50;;;18.80;99.90;;;;;;4976082;28;20242;-88
2022/08/23 05:25:55;;;;;;;19.73;15.17;;;18.80;99.90;;;;;;4986426;28;20238;-89
2022/08/23 05:28:25;;;;;;;24.77;15.57;;;18.80;99.90;;;;;;4985544;28;20219;-88
2022/08/23 05:30:58;;;;;;;19.70;15.87;;;18.90;99.90;;;;;;4986097;28;20229;-90
2022/08/23 05:33:26;;;;;;;19.23;14.90;;;18.90;99.90;;;;;;4986549;28;20200;-89
2022/08/23 05:35:54;;;;;;;22.10;15.83;;;18.90;99.90;;;;;;4985248;28;20283;-90
2022/08/23 05:38:22;;;;;;;23.20;15.90;;;18.90;99.90;;;;;;4967122;28;20219;-87
2022/08/23 05:40:52;;;;;;;18.53;15.07;;;18.90;99.40;;;;;;4978838;28;20195;-88
2022/08/23 05:43:20;;;;;;;19.10;15.40;;;19.00;95.70;;;;;;4986784;28;20216;-89
2022/08/23 05:45:59;;;;;;;21.17;15.73;;;19.00;15.10;;;;;;4986642;28;20195;-90
2022/08/23 05:48:27;;;;;;;20.20;16.07;;;19.00;1.00;;;;;;4973110;28;20219;-90
2022/08/23 05:50:54;;;;;;;19.87;15.97;;;19.00;1.00;;;;;;4986705;28;20231;-91
2022/08/23 05:53:22;;;;;;;19.33;15.63;;;19.10;1.00;;;;;;4985929;28;20273;-89
2022/08/23 05:55:51;;;;;;;24.07;15.17;;;19.00;1.00;;;;;;4985329;28;20219;-90
2022/08/23 05:58:18;;;;;;;18.50;14.50;;;19.10;1.00;;;;;;4989363;28;20203;-89
2022/08/23 06:00:46;;;;;;;18.80;14.87;;;19.10;1.00;;;;;;4989396;28;20278;-88
2022/08/23 06:03:13;;;;;;;18.23;14.63;;;19.10;1.00;;;;;;4989694;28;20223;-88
2022/08/23 06:05:41;;;;;;;18.50;14.70;;;19.10;1.00;;;;;;4988571;28;20195;-89
2022/08/23 06:08:09;;;;;;;20.10;16.10;;;19.10;1.00;;;;;;4983890;28;20216;-89
2022/08/23 06:10:39;;;;;;;18.03;14.13;;;19.20;1.00;;;;;;4976014;28;20203;-89
2022/08/23 06:13:08;;;;;;;20.90;15.87;;;19.20;1.00;;;;;;4978422;28;20276;-88
2022/08/23 06:15:35;;;;;;;21.63;16.43;;;19.20;1.00;;;;;;4983229;28;20204;-90
2022/08/23 06:18:04;;;;;;;21.03;16.03;;;19.20;1.00;;;;;;4981399;28;20199;-89
2022/08/23 06:20:31;;;;;;;19.97;15.27;;;19.30;1.00;;;;;;4989062;28;20195;-89
2022/08/23 06:22:58;;;;;;;23.37;16.27;;;19.30;1.00;;;;;;4988375;28;20210;-88
2022/08/23 06:25:26;;;;;;;21.27;14.73;;;19.30;1.00;;;;;;4989623;28;20227;-88
2022/08/23 06:27:54;;;;;;;19.73;15.17;;;19.40;1.00;;;;;;4988655;28;20547;-88
2022/08/23 06:30:23;;;;;;;20.07;14.20;;;19.40;1.00;;;;;;4978595;28;20232;-89
2022/08/23 06:32:51;;;;;;;22.93;14.87;;;19.50;1.00;;;;;;4983019;28;20213;-89
2022/08/23 06:35:18;;;;;;;23.93;15.47;;;19.50;1.00;;;;;;4977837;28;20207;-89
2022/08/23 06:37:45;;;;;;;19.23;14.70;;;19.60;99.90;;;;;;4985923;28;20606;-89
2022/08/23 06:40:13;;;;;;;20.03;15.50;;;19.60;99.90;;;;;;4968154;28;20185;-90
2022/08/23 06:42:41;;;;;;;20.60;15.47;;;19.70;99.90;;;;;;4981767;28;20744;-88
2022/08/23 06:45:08;;;;;;;21.90;15.50;;;19.70;1.00;;;;;;4988280;28;20200;-87
2022/08/23 06:47:38;;;;;;;21.90;14.73;;;19.80;1.00;;;;;;4987852;28;20382;-88
2022/08/23 06:50:05;;;;;;;21.47;15.43;;;19.80;1.00;;;;;;4988753;28;20255;-87
2022/08/23 06:52:32;;;;;;;20.80;13.67;;;19.70;1.00;;;;;;4975517;28;20222;-86
2022/08/23 06:55:01;;;;;;;19.30;14.25;;;19.70;1.00;;;;;;4975203;28;20202;-86
2022/08/23 06:57:28;;;;;;;19.47;14.27;;;19.70;1.00;;;;;;4975643;28;20200;-87
2022/08/23 07:00:01;;;;;;;20.90;15.90;;;19.70;1.00;;;;;;4977491;28;20203;-89
2022/08/23 07:02:32;;;;;;;19.57;15.87;;;19.70;1.00;;;;;;4991369;28;20653;-88
2022/08/23 07:05:15;;;;;;;20.90;16.20;;;19.70;1.00;;;;;;4981708;28;20200;-93
2022/08/23 07:07:56;;;;;;;18.37;14.50;;;19.70;1.00;;;;;;4972941;28;20212;-88
2022/08/23 07:10:27;;;;;;;19.80;15.60;;;19.70;1.00;;;;;;4986338;28;20263;-89
2022/08/23 07:13:04;;;;;;;29.43;17.27;;;19.70;1.00;;;;;;4995726;28;20207;-91
2022/08/23 07:15:31;;;;;;;19.70;15.10;;;19.80;1.00;;;;;;4982402;28;20195;-88
2022/08/23 07:17:58;;;;;;;17.60;13.75;;;19.80;1.00;;;;;;4975354;28;20196;-87
2022/08/23 07:23:16;;;;;;;20.47;16.47;;;19.90;1.00;;;;;;4981936;28;20646;-89
2022/08/23 07:25:52;;;;;;;;;;;20.00;1.00;;;;;;4996229;28;20202;-91
2022/08/23 07:28:26;;;;;;;18.17;15.73;;;20.10;1.00;;;;;;4988764;28;20080;-88
2022/08/23 07:31:18;;;;;;;18.63;16.00;;;20.20;1.00;;;;;;4977826;28;20220;-91
2022/08/23 07:34:02;;;;;;;22.60;16.40;;;20.20;99.90;;;;;;4977600;29;20211;-89
2022/08/23 07:36:33;;;;;;;19.27;16.70;;;20.30;1.00;;;;;;4974764;28;20660;-86
2022/08/23 07:39:11;;;;;;;21.43;17.50;;;20.40;1.00;;;;;;4985769;28;20199;-91
2022/08/23 07:41:41;;;;;;;20.80;17.00;;;20.50;99.90;;;;;;4993040;28;20228;-90
2022/08/23 07:44:10;;;;;;;21.77;17.27;;;20.60;99.90;;;;;;4974139;28;20368;-88
2022/08/23 07:46:39;;;;;;;33.63;17.23;;;20.70;1.00;;;;;;4973681;28;20204;-86
2022/08/23 07:49:07;;;;;;;21.20;16.73;;;20.80;1.00;;;;;;4972009;29;20236;-88
2022/08/23 07:51:36;;;;;;;24.53;17.10;;;20.90;1.00;;;;;;4967363;28;20191;-86
2022/08/23 07:54:05;;;;;;;21.47;17.57;;;21.00;1.00;;;;;;4984630;28;20202;-88
2022/08/23 07:56:32;;;;;;;20.67;17.53;;;21.10;99.90;;;;;;4962735;28;20282;-88
2022/08/23 07:59:00;;;;;;;27.17;18.13;;;21.20;59.60;;;;;;4974303;28;20591;-88
2022/08/23 08:01:28;;;;;;;19.37;16.97;;;21.40;1.00;;;;;;4983183;28;20212;-88
2022/08/23 08:03:58;;;;;;;21.57;16.50;;;21.50;99.90;;;;;;4977038;28;20528;-86
2022/08/23 08:06:27;;;;;;;20.00;17.30;;;21.70;93.70;;;;;;4974140;28;20649;-86
2022/08/23 08:09:09;;;;;;;23.30;17.80;;;21.90;1.00;;;;;;4979265;28;20215;-91
2022/08/23 08:11:37;;;;;;;21.60;17.43;;;22.10;99.90;;;;;;4991778;28;20218;-86
2022/08/23 08:14:05;;;;;;;;;;;22.20;1.00;;;;;;4972492;28;20704;-86
2022/08/23 08:16:34;;;;;;;;;;;22.30;1.00;;;;;;4974396;28;20007;-86
2022/08/23 08:19:05;;;;;;;697.93;266.73;;;22.40;1.00;;;;;;4973374;28;20383;-87
2022/08/23 08:21:41;;;;;;;;;;;22.60;99.90;;;;;;4984681;28;20088;-90
2022/08/23 08:24:11;;;;;;;;;;;22.60;1.00;;;;;;4977792;28;19914;-87
2022/08/23 08:26:44;;;;;;;;;;;22.80;99.90;;;;;;4974347;28;19969;-89
2022/08/23 08:29:13;;;;;;;692.80;300.13;;;23.00;99.90;;;;;;4986771;28;20185;-91
2022/08/23 08:31:51;;;;;;;694.77;289.30;;;23.20;1.00;;;;;;4982868;28;20219;-90
2022/08/23 08:34:27;;;;;;;687.97;291.53;;;23.10;1.00;;;;;;4980862;28;20195;-92
2022/08/23 08:37:10;;;;;;;685.20;298.90;;;23.10;99.90;;;;;;4976296;29;20227;-88
2022/08/23 08:39:44;;;;;;;682.83;300.73;;;23.10;1.00;;;;;;4971389;28;20203;-86
2022/08/23 08:42:39;;;;;;;674.47;296.73;;;23.10;99.90;;;;;;4967816;28;20246;-87
2022/08/23 08:45:13;;;;;;;678.30;313.20;;;23.10;99.90;;;;;;4980046;28;20275;-92
2022/08/23 08:47:45;;;;;;;678.00;311.87;;;23.20;99.90;;;;;;4954477;29;20192;-88
2022/08/23 08:50:19;;;;;;;671.50;307.40;;;23.20;99.90;;;;;;4968370;28;20632;-88
2022/08/23 08:52:53;;;;;;;670.10;313.63;;;23.30;99.90;;;;;;4973634;28;20650;-88
2022/08/23 08:55:26;;;;;;;662.30;309.53;;;23.30;99.90;;;;;;4985658;28;20194;-89
2022/08/23 08:58:06;;;;;;;666.50;324.63;;;23.30;99.90;;;;;;4975709;29;20199;-88
2022/08/23 09:00:36;;;;;;;669.27;318.60;;;23.30;44.20;;;;;;4967541;28;20661;-88
2022/08/23 09:03:19;;;;;;;670.67;319.23;;;23.30;1.00;;;;;;4983412;28;20203;-90
2022/08/23 09:05:54;;;;;;;665.63;319.63;;;23.30;99.90;;;;;;4970835;28;20222;-87
2022/08/23 09:08:49;;;;;;;675.90;312.03;;;23.30;1.00;;;;;;4964080;28;20235;-90
2022/08/23 09:11:29;;;;;;;683.50;315.80;;;23.20;1.00;;;;;;4979497;28;20215;-89
2022/08/23 09:14:17;;;;;;;674.33;307.70;;;23.20;1.00;;;;;;4972530;28;20606;-86
2022/08/23 09:16:51;;;;;;;669.50;314.80;;;23.10;1.00;;;;;;4972165;28;20262;-86
2022/08/23 09:19:19;;;;;;;633.70;318.63;;;23.00;1.00;;;;;;4973061;28;20191;-86
2022/08/23 09:22:00;;;;;;;623.43;313.67;;;23.00;1.00;;;;;;4980524;28;20192;-90
2022/08/23 09:24:50;;;;;;;616.43;310.70;;;23.00;1.00;;;;;;4995383;28;20125;-90
2022/08/23 09:27:19;;;;;;;608.80;304.13;;;22.90;1.00;;;;;;4975496;28;20241;-87
2022/08/23 09:30:10;;;;;;;613.97;307.73;;;23.00;63.10;;;;;;4972977;28;20198;-87
2022/08/23 09:32:55;;;;;;;;;;;;;;;;;;;;;
2022/08/23 09:35:25;;;;;;;609.70;301.13;;;23.10;23.70;;;;;;4992175;28;20196;-86
2022/08/23 09:38:01;;;;;;;608.87;300.93;;;23.20;1.00;;;;;;4984155;28;20215;-91
2022/08/23 09:40:41;;;;;;;628.80;333.40;;;23.20;1.00;;;;;;4994151;28;20193;-90
2022/08/23 09:43:13;;;;;;;671.00;475.57;;;23.20;1.00;;;;;;4995829;28;20278;-90
2022/08/23 09:45:53;;;;;;;687.70;537.40;;;23.20;1.00;;;;;;4978193;28;20274;-90
2022/08/23 09:48:40;;;;;;;664.57;436.53;;;23.10;1.00;;;;;;4980576;28;20190;-88
2022/08/23 09:51:41;;;;;;;678.75;478.05;;;23.00;8.20;;;;;;4994855;28;20443;-91
2022/08/23 09:54:45;;;;;;;687.97;510.53;;;22.90;95.20;;;;;;4980822;28;20388;-93
2022/08/23 09:57:23;;;;;;;674.10;461.83;;;22.80;99.90;;;;;;4998418;28;20020;-89
2022/08/23 09:59:53;;;;;;;669.33;452.27;;;22.80;99.90;;;;;;4978371;28;20192;-88
2022/08/23 10:02:29;;;;;;;676.53;471.17;;;22.80;99.90;;;;;;4980915;28;20199;-95
2022/08/23 10:05:05;;;;;;;670.80;434.03;;;22.80;99.90;;;;;;4991691;28;20191;-90
2022/08/23 10:07:44;;;;;;;674.13;464.60;;;22.80;99.90;;;;;;4991219;28;20227;-91
2022/08/23 10:10:23;;;;;;;677.43;486.07;;;22.90;1.00;;;;;;4993076;28;20286;-90
2022/08/23 10:13:01;;;;;;;646.77;336.53;;;23.00;1.00;;;;;;4984989;28;20235;-88
2022/08/23 10:15:48;;;;;;;623.63;244.90;;;23.10;1.00;;;;;;4978663;29;20207;-86
2022/08/23 10:18:32;;;;;;;620.57;254.90;;;23.20;1.00;;;;;;4979297;29;20200;-88
2022/08/23 10:21:04;;;;;;;675.93;464.37;;;23.40;1.00;;;;;;4972660;28;20290;-87
2022/08/23 10:23:43;;;;;;;680.77;492.20;;;23.50;1.00;;;;;;4984539;28;20195;-88
2022/08/23 10:26:17;;;;;;;678.57;479.93;;;23.70;99.90;;;;;;4975732;28;20191;-87
2022/08/23 10:31:59;;;;;;;633.37;300.80;;;23.90;99.90;;;;;;4955468;29;20621;-87
2022/08/23 10:34:50;;;;;;;668.00;456.60;;;23.90;99.90;;;;;;4979800;28;20217;-91
2022/08/23 10:37:35;;;;;;;620.80;321.13;;;23.90;35.00;;;;;;4966555;28;20196;-92
2022/08/23 10:43:19;;;;;;;616.03;312.63;;;23.80;1.00;;;;;;4959694;28;20208;-89
2022/08/23 10:45:53;;;;;;;619.03;315.37;;;23.80;67.50;;;;;;4957584;29;20217;-91
2022/08/23 10:48:47;;;;;;;610.10;313.20;;;23.80;99.90;;;;;;4978684;28;20207;-88
2022/08/23 10:51:19;;;;;;;619.30;308.07;;;23.80;99.90;;;;;;4976121;28;20224;-89
2022/08/23 10:53:59;;;;;;;618.20;300.33;;;23.90;99.90;;;;;;4991031;28;20219;-91
2022/08/23 10:56:28;;;;;;;613.57;314.27;;;23.80;38.80;;;;;;4977776;28;20207;-91
2022/08/23 10:58:58;;;;;;;618.23;323.07;;;23.70;1.80;;;;;;4988378;28;20204;-89
2022/08/23 11:01:30;;;;;;;616.07;319.97;;;23.70;42.60;;;;;;4988978;28;20219;-89
2022/08/23 11:04:25;;;;;;;611.63;321.07;;;23.60;99.90;;;;;;4972036;29;20195;-92
2022/08/23 11:06:54;;;;;;;609.23;315.97;;;23.50;99.90;;;;;;4966589;28;20196;-91
2022/08/23 11:09:59;;;;;;;613.13;321.80;;;23.40;99.90;;;;;;4994478;28;20183;-91
2022/08/23 11:15:36;;;;;;;633.90;318.57;;;23.40;99.90;;;;;;4966087;28;20191;-92
2022/08/23 11:21:36;;;;;;;642.30;313.37;;;23.70;1.00;;;;;;4983185;28;20188;-87
2022/08/23 11:27:35;;;;;;;625.50;323.50;;;24.10;99.90;;;;;;4893064;29;20209;-88
2022/08/23 11:30:55;;;;;;;622.90;320.87;;;24.30;99.90;;;;;;4996288;28;20658;-92
2022/08/23 11:33:26;;;;;;;641.93;324.47;;;24.40;99.90;;;;;;4915873;29;20230;-92
2022/08/23 11:36:20;;;;;;;653.90;331.03;;;24.50;99.90;;;;;;4919746;29;20266;-91
2022/08/23 11:39:28;;;;;;;641.10;330.67;;;24.60;99.90;;;;;;4971569;28;20199;-90
2022/08/23 11:42:10;;;;;;;654.00;339.97;;;24.70;1.00;;;;;;4997711;28;20255;-91
2022/08/23 11:44:57;;;;;;;644.07;346.53;;;24.80;1.00;;;;;;4997441;28;20271;-88
2022/08/23 11:47:55;;;;;;;631.27;340.10;;;24.90;1.00;;;;;;4977912;29;20267;-91
2022/08/23 11:50:29;;;;;;;636.73;346.63;;;25.00;1.00;;;;;;4937542;29;20224;-87
2022/08/23 11:53:14;;;;;;;634.33;346.93;;;25.00;1.00;;;;;;4951981;29;20607;-87
2022/08/23 11:56:10;;;;;;;647.60;349.67;;;25.00;1.00;;;;;;4954634;28;20188;-87
2022/08/23 11:58:57;;;;;;;648.77;347.03;;;25.10;1.00;;;;;;4948906;29;20715;-87
2022/08/23 12:01:31;;;;;;;662.23;351.30;;;25.20;1.00;;;;;;4951761;29;20196;-86
2022/08/23 12:04:07;;;;;;;672.30;351.23;;;25.20;1.00;;;;;;4955277;29;20555;-87
2022/08/23 12:06:45;;;;;;;675.17;351.30;;;25.20;1.00;;;;;;4954614;29;20725;-88
2022/08/23 12:09:35;;;;;;;680.10;347.37;;;25.20;1.00;;;;;;4969139;29;20197;-90
2022/08/23 12:12:23;;;;;;;699.57;349.13;;;25.20;1.00;;;;;;4939645;29;20254;-90
2022/08/23 12:14:59;;;;;;;675.47;348.90;;;25.30;1.00;;;;;;4957032;29;20224;-91
2022/08/23 12:18:17;;;;;;;686.37;359.90;;;25.40;1.00;;;;;;4958407;29;20532;-92
2022/08/23 12:20:47;;;;;;;678.80;360.10;;;25.60;1.00;;;;;;4954606;29;20252;-89
2022/08/23 12:23:22;;;;;;;658.30;356.97;;;25.70;1.00;;;;;;4953974;28;20185;-89
2022/08/23 12:26:23;;;;;;;657.40;369.33;;;25.80;99.90;;;;;;4959862;29;20228;-93
2022/08/23 12:32:02;;;;;;;613.97;356.93;;;26.10;1.00;;;;;;4957821;29;20256;-90
2022/08/23 12:34:52;;;;;;;611.03;364.20;;;26.30;99.90;;;;;;4953370;29;20196;-90
2022/08/23 12:37:45;;;;;;;607.67;358.63;;;26.40;99.90;;;;;;4977045;29;20192;-93
2022/08/23 12:40:15;;;;;;;611.57;368.63;;;26.50;44.50;;;;;;4961345;29;20203;-88
2022/08/23 12:42:52;;;;;;;613.57;371.40;;;26.60;97.40;;;;;;4975945;28;20215;-93
2022/08/23 12:45:23;;;;;;;613.03;377.67;;;26.70;95.40;;;;;;4977204;29;20200;-91
2022/08/23 12:47:59;;;;;;;615.77;377.90;;;26.90;1.00;;;;;;4959156;29;20185;-92
2022/08/23 12:50:28;;;;;;;613.93;380.67;;;26.90;1.00;;;;;;4949597;28;20298;-88
2022/08/23 12:52:58;;;;;;;621.27;382.03;;;27.00;1.00;;;;;;4954254;28;20196;-88
2022/08/23 12:55:32;;;;;;;625.50;385.30;;;27.20;1.00;;;;;;4960859;28;20212;-86
2022/08/23 12:58:07;;;;;;;625.77;392.87;;;27.40;1.00;;;;;;4960288;29;20292;-91
2022/08/23 13:00:41;;;;;;;614.23;383.43;;;27.50;1.00;;;;;;4962708;29;20199;-87
2022/08/23 13:03:16;;;;;;;619.47;395.50;;;27.60;1.00;;;;;;4953776;29;20528;-87
2022/08/23 13:05:46;;;;;;;635.20;391.87;;;27.60;1.00;;;;;;4955351;28;20198;-87
2022/08/23 13:08:22;;;;;;;645.07;399.50;;;27.50;1.00;;;;;;4953539;29;20256;-86
2022/08/23 13:10:50;;;;;;;636.07;401.33;;;27.50;1.00;;;;;;4938355;29;20282;-88
2022/08/23 13:13:22;;;;;;;640.13;401.33;;;27.50;1.00;;;;;;4957966;28;20200;-88
2022/08/23 13:15:53;;;;;;;634.77;391.93;;;27.40;1.00;;;;;;4951766;29;20702;-86
2022/08/23 13:18:29;;;;;;;631.97;400.97;;;27.40;1.00;;;;;;4947408;29;20192;-86
2022/08/23 13:21:24;;;;;;;625.30;382.93;;;27.30;1.00;;;;;;4957582;29;20173;-87
2022/08/23 13:23:53;;;;;;;622.47;389.47;;;27.10;1.00;;;;;;4930831;29;20601;-86
2022/08/23 13:26:42;;;;;;;614.67;375.43;;;26.90;1.00;;;;;;4933634;29;20233;-87
2022/08/23 13:29:13;;;;;;;619.67;388.17;;;26.60;1.00;;;;;;4926870;29;20517;-84
2022/08/23 13:31:57;;;;;;;613.67;376.73;;;26.50;1.00;;;;;;4925838;29;20197;-87
2022/08/23 13:34:52;;;;;;;613.20;374.80;;;26.50;1.00;;;;;;4930974;29;20208;-86
2022/08/23 13:37:25;;;;;;;609.50;367.43;;;26.20;1.00;;;;;;4942561;29;20198;-87
2022/08/23 13:43:03;;;;;;;617.77;378.57;;;26.00;1.00;;;;;;4929616;29;20201;-88
2022/08/23 13:48:37;;;;;;;614.97;364.50;;;25.90;1.00;;;;;;4869718;29;20202;-87
2022/08/23 13:51:27;;;;;;;618.37;357.97;;;25.80;1.00;;;;;;4876885;29;20290;-86
2022/08/23 13:53:55;;;;;;;616.67;360.20;;;25.70;1.00;;;;;;4947251;29;20270;-86
2022/08/23 13:56:24;;;;;;;611.33;357.37;;;25.60;1.00;;;;;;4956634;29;20560;-86
2022/08/23 13:59:42;;;;;;;611.57;362.10;;;25.50;7.30;;;;;;4953234;28;20248;-89
2022/08/23 14:08:42;;;;;;;615.90;358.17;;;25.50;99.90;;;;;;4942969;29;20221;-85
2022/08/23 14:11:22;;;;;;;610.80;351.63;;;25.60;99.90;;;;;;4962009;29;20698;-86
2022/08/23 14:14:33;;;;;;;;;;;;;;;;;;;;;
2022/08/23 14:17:02;;;;;;;616.10;356.03;;;25.50;99.90;;;;;;4956660;29;20197;-86
2022/08/23 14:19:31;;;;;;;614.17;346.47;;;25.40;99.90;;;;;;4950118;29;20197;-85
2022/08/23 14:22:04;;;;;;;614.80;351.83;;;25.40;99.90;;;;;;4941355;29;20185;-89
2022/08/23 14:24:31;;;;;;;616.57;352.17;;;25.40;99.90;;;;;;4960747;29;20219;-85
2022/08/23 14:27:00;;;;;;;615.60;344.27;;;25.40;99.90;;;;;;4957003;29;20248;-86
2022/08/23 14:29:30;;;;;;;613.80;347.90;;;25.50;99.90;;;;;;4964270;29;20192;-90
2022/08/23 14:31:58;;;;;;;614.27;341.77;;;25.40;99.90;;;;;;4963094;28;20525;-87
2022/08/23 14:34:26;;;;;;;614.23;353.03;;;25.40;99.90;;;;;;4954486;28;20227;-88
2022/08/23 14:36:57;;;;;;;614.73;353.00;;;25.30;99.90;;;;;;4946159;29;20193;-84
2022/08/23 14:40:13;;;;;;;610.13;348.60;;;25.30;99.90;;;;;;4961134;29;20204;-85